KDDC/DDC METAR and TAF weather

Enter ICAO airport designator
Station Type Date Time Source
KDDC METAR 2021/04/13 07:52 UTC NOAA

KDDC 130752Z AUTO 29003KT 10SM CLR 03/M05 A3018 RMK AO2 SLP220 T00281050


Station Type Date Time Source
KDDC Decoded METAR 2021/04/13 07:52 UTC NOAA

DODGE CITY REGIONAL AIRPORT, KS, United States (KDDC) 37-46N 99-58W 789M
Apr 13, 2021 - 03:52 AM EDT / 2021.04.13 0752 UTC
Wind: from the WNW (290 degrees) at 3 MPH (3 KT):0
Visibility: 10 mile(s):0
Sky conditions: clear
Temperature: 37.0 F (2.8 C)
Dew Point: 23.0 F (-5.0 C)
Relative Humidity: 56%
Pressure (altimeter): 30.18 in. Hg (1022 hPa)
ob: KDDC 130752Z AUTO 29003KT 10SM CLR 03/M05 A3018 RMK AO2 SLP220 T00281050
cycle: 8

Station Type Date Time Source
KDDC TAF 2021/04/13 06:21 UTC NOAA

TAF KDDC 130520Z 1306/1406 34003KT P6SM SKC
FM140500 12005KT P6SM BKN150

Example: see airport list